Time;durP1;ratioP1;P1;durP2;ratioP2;P2;SDS_P1;SDS_P2;PMS_P1;PMS_P2;Temp;Humidity;BMP_temperature;BMP_pressure;BME280_temperature;BME280_humidity;BME280_pressure;Samples;Min_cycle;Max_cycle;Signal;HPM_P1;HPM_P2
2021/07/14 00:00:37;;;;;;;3.75;3.30;;;;;;;17.91;89.75;98853.91;5115502;28;20708;-73
2021/07/14 00:03:04;;;;;;;5.80;4.03;;;;;;;17.98;89.90;98854.16;5115238;28;20224;-74
2021/07/14 00:05:33;;;;;;;3.85;3.38;;;;;;;18.06;89.64;98844.19;5115377;28;20194;-73
2021/07/14 00:08:00;;;;;;;5.82;3.75;;;;;;;17.94;90.66;98852.75;5114813;28;20255;-74
2021/07/14 00:10:31;;;;;;;3.58;3.28;;;;;;;17.96;91.03;98856.19;5115591;28;20535;-73
2021/07/14 00:13:04;;;;;;;3.60;3.17;;;;;;;17.97;90.80;98860.59;5115372;28;20758;-73
2021/07/14 00:23:45;;;;;;;3.35;3.05;;;;;;;18.11;89.24;98836.41;5115385;28;20214;-73
2021/07/14 00:26:11;;;;;;;4.75;2.85;;;;;;;17.97;89.57;98827.91;5115327;28;20186;-73
2021/07/14 00:28:39;;;;;;;6.93;3.40;;;;;;;18.00;89.07;98822.16;5114576;28;20284;-74
2021/07/14 00:31:13;;;;;;;4.25;3.85;;;;;;;17.94;89.56;98815.47;5114917;28;20631;-73
2021/07/14 00:33:40;;;;;;;5.80;3.33;;;;;;;17.85;90.29;98817.25;5114550;28;20197;-74
2021/07/14 00:36:08;;;;;;;8.88;4.35;;;;;;;17.80;91.13;98805.09;5114116;28;20237;-72
2021/07/14 00:38:34;;;;;;;4.60;3.70;;;;;;;17.89;90.19;98802.31;5114215;28;20188;-74
2021/07/14 00:41:01;;;;;;;7.90;3.90;;;;;;;17.65;91.80;98793.88;5114466;28;20186;-73
2021/07/14 00:43:28;;;;;;;5.47;3.55;;;;;;;17.40;94.38;98795.47;5105836;28;20280;-72
2021/07/14 00:45:55;;;;;;;5.55;3.40;;;;;;;17.58;93.04;98796.34;5114418;28;20226;-73
2021/07/14 00:48:27;;;;;;;6.80;3.78;;;;;;;17.72;91.72;98803.13;5114203;28;20257;-73
2021/07/14 00:50:54;;;;;;;5.97;4.38;;;;;;;17.78;91.54;98799.78;5114557;28;20211;-74
2021/07/14 00:53:22;;;;;;;6.72;3.47;;;;;;;17.85;90.98;98789.19;5114143;28;20217;-73
2021/07/14 00:55:50;;;;;;;4.20;3.47;;;;;;;17.75;91.94;98791.06;5114935;28;20185;-73
2021/07/14 00:58:17;;;;;;;5.13;3.78;;;;;;;17.69;92.23;98795.28;5114714;28;20202;-73
2021/07/14 01:00:44;;;;;;;6.88;3.78;;;;;;;17.70;92.33;98806.03;5105924;28;20211;-73
2021/07/14 01:03:12;;;;;;;5.80;3.83;;;;;;;17.76;91.61;98809.13;5114530;28;21029;-73
2021/07/14 01:05:42;;;;;;;4.97;3.33;;;;;;;17.79;92.05;98817.81;5113808;28;20186;-74
2021/07/14 01:08:15;;;;;;;6.40;4.47;;;;;;;17.87;91.70;98812.50;5113868;28;20224;-73
2021/07/14 01:10:48;;;;;;;9.05;4.32;;;;;;;17.68;92.32;98820.78;5114381;28;20188;-74
2021/07/14 01:13:22;;;;;;;6.68;3.90;;;;;;;17.76;92.43;98820.03;5113992;28;20255;-75
2021/07/14 01:15:53;;;;;;;7.88;3.88;;;;;;;17.71;92.84;98813.16;5113800;28;20198;-73
2021/07/14 01:18:26;;;;;;;9.07;4.40;;;;;;;17.67;93.78;98808.19;5114448;28;20189;-73
2021/07/14 01:20:59;;;;;;;11.93;4.25;;;;;;;17.82;92.67;98800.34;5113745;28;20181;-73
2021/07/14 01:23:35;;;;;;;6.47;3.80;;;;;;;17.85;91.60;98798.19;5113699;28;20193;-75
2021/07/14 01:26:13;;;;;;;6.70;4.03;;;;;;;17.75;93.16;98799.22;5113248;28;20189;-73
2021/07/14 01:28:45;;;;;;;17.95;4.75;;;;;;;17.88;92.52;98794.31;5113935;28;20284;-74
2021/07/14 01:31:13;;;;;;;5.75;4.22;;;;;;;17.72;93.56;98800.41;5113835;28;20193;-73
2021/07/14 01:33:42;;;;;;;5.47;4.28;;;;;;;17.74;93.01;98792.09;5113178;28;20205;-74
2021/07/14 01:36:14;;;;;;;5.72;4.25;;;;;;;17.67;94.15;98783.69;5113375;28;20227;-74
2021/07/14 01:38:44;;;;;;;6.38;4.50;;;;;;;17.87;91.78;98779.00;5113325;28;20189;-73
2021/07/14 01:41:12;;;;;;;6.38;3.85;;;;;;;17.86;91.44;98782.69;5113216;28;20188;-73
2021/07/14 01:43:43;;;;;;;5.55;4.22;;;;;;;17.84;91.10;98788.31;5113596;28;20694;-74
2021/07/14 01:46:10;;;;;;;7.68;4.97;;;;;;;17.76;91.48;98782.75;5113539;28;20186;-72
2021/07/14 01:48:39;;;;;;;11.80;4.85;;;;;;;17.80;90.86;98781.44;5113541;28;20535;-72
2021/07/14 01:51:07;;;;;;;10.20;4.30;;;;;;;17.80;90.85;98769.69;5113065;28;20213;-74
2021/07/14 01:53:35;;;;;;;5.90;4.45;;;;;;;17.67;91.93;98761.91;5105403;28;20204;-74
2021/07/14 01:56:08;;;;;;;6.70;3.55;;;;;;;17.71;91.62;98753.28;5112188;28;20202;-74
2021/07/14 01:58:37;;;;;;;6.10;4.30;;;;;;;17.67;91.60;98751.03;5105493;28;20563;-73
2021/07/14 02:01:06;;;;;;;4.38;3.97;;;;;;;17.62;91.85;98746.03;5113376;28;20193;-73
2021/07/14 02:03:43;;;;;;;4.00;3.60;;;;;;;17.58;92.28;98760.13;5112827;28;20735;-73
2021/07/14 02:06:12;;;;;;;5.95;3.53;;;;;;;17.47;91.36;98770.19;5113202;28;20189;-74
2021/07/14 02:08:40;;;;;;;4.35;3.95;;;;;;;17.49;91.84;98779.06;5113245;28;20269;-75
2021/07/14 02:11:07;;;;;;;3.60;3.30;;;;;;;17.55;91.61;98783.06;5113219;28;20230;-75
2021/07/14 02:13:37;;;;;;;6.78;3.17;;;;;;;17.54;91.08;98794.94;5112991;28;20292;-73
2021/07/14 02:16:06;;;;;;;3.33;3.03;;;;;;;17.56;91.23;98798.38;5113136;28;20563;-74
2021/07/14 02:18:40;;;;;;;3.53;2.80;;;;;;;17.63;91.16;98795.88;5112612;28;20632;-74
2021/07/14 02:21:07;;;;;;;6.10;3.20;;;;;;;17.65;90.92;98808.31;5112746;28;20189;-74
2021/07/14 02:23:35;;;;;;;4.05;3.03;;;;;;;17.43;92.02;98811.47;5113057;28;20197;-74
2021/07/14 02:26:02;;;;;;;3.35;3.05;;;;;;;17.69;90.08;98812.47;5112870;28;20182;-75
2021/07/14 02:28:29;;;;;;;3.80;2.75;;;;;;;17.70;90.31;98810.59;5112413;28;20226;-74
2021/07/14 02:30:56;;;;;;;4.05;3.05;;;;;;;17.65;90.62;98802.88;5110005;28;20197;-74
2021/07/14 02:33:25;;;;;;;7.43;3.80;;;;;;;17.50;91.87;98812.56;5112097;28;20288;-74
2021/07/14 02:35:57;;;;;;;4.88;3.55;;;;;;;17.51;92.51;98819.75;5112516;28;20318;-74
2021/07/14 02:38:29;;;;;;;3.72;3.40;;;;;;;17.59;91.83;98822.56;5112373;28;20192;-74
2021/07/14 02:41:00;;;;;;;5.65;3.30;;;;;;;17.63;91.32;98823.97;5112325;28;20258;-73
2021/07/14 02:43:28;;;;;;;5.97;3.35;;;;;;;17.39;92.18;98821.81;5112510;28;20273;-74
2021/07/14 02:45:57;;;;;;;4.80;3.53;;;;;;;17.50;93.02;98812.56;5112388;28;20619;-74
2021/07/14 02:48:28;;;;;;;3.10;2.90;;;;;;;17.65;92.08;98812.91;5112030;28;20229;-74
2021/07/14 02:50:56;;;;;;;4.90;4.00;;;;;;;17.63;91.92;98806.78;5112351;28;20574;-74
2021/07/14 02:53:26;;;;;;;4.15;3.75;;;;;;;17.72;91.54;98806.69;5111988;28;20189;-73
2021/07/14 02:55:56;;;;;;;5.72;3.45;;;;;;;17.67;91.73;98795.41;5112453;28;20186;-74
2021/07/14 02:58:23;;;;;;;10.63;4.40;;;;;;;17.69;91.96;98789.84;5111738;28;20197;-73
2021/07/14 03:00:51;;;;;;;7.22;3.88;;;;;;;17.89;90.76;98793.31;5112061;28;20194;-72
2021/07/14 03:03:18;;;;;;;8.25;5.13;;;;;;;17.80;90.83;98777.88;5112153;28;20577;-74
2021/07/14 03:05:47;;;;;;;9.85;4.10;;;;;;;17.77;91.14;98779.00;5110952;28;20288;-74
2021/07/14 03:08:16;;;;;;;5.90;3.92;;;;;;;17.84;91.23;98771.09;5103967;28;20555;-73
2021/07/14 03:10:44;;;;;;;3.88;3.30;;;;;;;17.93;90.08;98772.91;5111756;28;20187;-73
2021/07/14 03:13:11;;;;;;;4.40;3.50;;;;;;;17.91;89.67;98772.22;5111647;28;20205;-75
2021/07/14 03:15:39;;;;;;;3.55;3.20;;;;;;;17.81;90.84;98766.84;5111788;28;20201;-75
2021/07/14 03:18:08;;;;;;;3.80;3.08;;;;;;;17.75;91.22;98766.56;5111450;28;20194;-73
2021/07/14 03:20:36;;;;;;;3.50;3.20;;;;;;;17.74;91.75;98764.88;5111550;28;20604;-72
2021/07/14 03:23:05;;;;;;;5.35;3.30;;;;;;;17.93;90.44;98756.56;5111979;28;20695;-73
2021/07/14 03:25:32;;;;;;;3.53;3.22;;;;;;;17.89;90.08;98763.34;5112032;28;20189;-74
2021/07/14 03:27:59;;;;;;;4.60;2.85;;;;;;;17.80;91.13;98770.56;5111647;28;20185;-72
2021/07/14 03:30:26;;;;;;;4.93;3.25;;;;;;;17.85;90.70;98770.13;5111482;28;20195;-74
2021/07/14 03:32:55;;;;;;;3.53;3.08;;;;;;;17.81;91.52;98771.41;5111677;28;20190;-74
2021/07/14 03:35:21;;;;;;;6.80;4.20;;;;;;;17.71;92.47;98772.34;5111365;28;20209;-73
2021/07/14 03:37:49;;;;;;;4.82;3.95;;;;;;;17.62;93.27;98773.25;5111829;28;20666;-74
2021/07/14 03:40:18;;;;;;;4.25;3.30;;;;;;;17.61;93.68;98787.00;5111599;28;20680;-74
2021/07/14 03:42:50;;;;;;;5.25;3.50;;;;;;;17.69;93.19;98787.13;5111839;28;20195;-73
2021/07/14 03:45:17;;;;;;;3.72;3.17;;;;;;;17.79;93.01;98787.88;5111274;28;20189;-75
2021/07/14 03:47:45;;;;;;;4.85;4.18;;;;;;;17.71;93.41;98798.72;5111887;28;20629;-72
2021/07/14 03:50:13;;;;;;;5.32;4.18;;;;;;;17.65;93.98;98794.72;5111195;28;20222;-74
2021/07/14 03:52:40;;;;;;;4.82;3.92;;;;;;;17.74;93.91;98797.53;5104394;28;20177;-74
2021/07/14 03:55:11;;;;;;;7.05;3.85;;;;;;;17.69;94.14;98798.00;5111556;28;20217;-74
2021/07/14 03:57:39;;;;;;;4.45;3.47;;;;;;;17.74;94.19;98794.81;5111828;28;20181;-74
2021/07/14 04:00:07;;;;;;;8.07;4.30;;;;;;;17.76;94.20;98792.78;5111658;28;20199;-74
2021/07/14 04:02:36;;;;;;;6.30;3.92;;;;;;;17.78;94.01;98791.63;5111290;28;20283;-73
2021/07/14 04:05:04;;;;;;;7.03;3.97;;;;;;;17.75;93.74;98789.22;5111075;28;20264;-75
2021/07/14 04:07:32;;;;;;;8.05;3.90;;;;;;;17.89;93.13;98794.16;5111169;28;20249;-74
2021/07/14 04:10:01;;;;;;;7.30;4.72;;;;;;;17.96;92.77;98790.81;5111571;28;20283;-74
2021/07/14 04:12:28;;;;;;;5.78;4.55;;;;;;;18.01;92.02;98794.78;5111385;28;20226;-73
2021/07/14 04:14:55;;;;;;;6.47;3.70;;;;;;;17.92;92.87;98804.72;5111112;28;20217;-73
2021/07/14 04:17:22;;;;;;;8.18;4.47;;;;;;;17.91;92.87;98800.31;5111240;28;20280;-73
2021/07/14 04:19:49;;;;;;;6.63;3.80;;;;;;;17.98;92.38;98796.97;5114636;28;20212;-73
2021/07/14 04:22:15;;;;;;;5.18;4.30;;;;;;;18.04;91.86;98793.59;5114701;28;20185;-72
2021/07/14 04:24:42;;;;;;;7.97;3.72;;;;;;;17.97;92.26;98790.63;5115455;28;20193;-73
2021/07/14 04:27:10;;;;;;;7.85;4.35;;;;;;;17.91;92.45;98796.72;5115194;28;20271;-74
2021/07/14 04:29:37;;;;;;;6.00;4.55;;;;;;;17.69;94.39;98798.84;5115338;28;20190;-74
2021/07/14 04:32:07;;;;;;;6.28;4.63;;;;;;;17.66;95.01;98791.00;5115520;28;20199;-73
2021/07/14 04:34:33;;;;;;;5.78;3.90;;;;;;;17.79;94.63;98782.44;5115127;28;20340;-72
2021/07/14 04:37:00;;;;;;;8.55;4.20;;;;;;;17.83;93.48;98783.88;5116592;27;20663;-74
2021/07/14 04:39:27;;;;;;;7.10;4.88;;;;;;;17.93;92.66;98791.97;5114983;28;20246;-72
2021/07/14 04:41:53;;;;;;;5.55;4.85;;;;;;;17.95;92.81;98797.25;5114880;28;20193;-73
2021/07/14 04:44:31;;;;;;;8.48;4.40;;;;;;;17.91;92.55;98788.56;5114893;28;20273;-74
2021/07/14 04:46:57;;;;;;;5.97;5.30;;;;;;;17.95;92.93;98798.09;5114881;28;20636;-74
2021/07/14 04:49:25;;;;;;;11.40;4.78;;;;;;;17.90;93.38;98789.56;5114959;28;20240;-75
2021/07/14 04:51:52;;;;;;;7.50;5.50;;;;;;;17.89;93.27;98791.44;5114374;28;20185;-73
2021/07/14 04:54:19;;;;;;;7.57;5.65;;;;;;;17.89;92.81;98796.03;5114680;28;20221;-74
2021/07/14 04:56:49;;;;;;;7.28;6.03;;;;;;;17.93;91.95;98791.97;5114477;28;20190;-73
2021/07/14 04:59:16;;;;;;;6.75;6.05;;;;;;;18.03;91.88;98792.75;5114753;28;20250;-73
2021/07/14 05:01:42;;;;;;;8.10;7.20;;;;;;;18.03;90.02;98792.75;5114655;28;20204;-73
2021/07/14 05:04:09;;;;;;;8.75;7.82;;;;;;;17.94;90.32;98793.69;5114373;28;20574;-73
2021/07/14 05:06:37;;;;;;;9.73;7.78;;;;;;;18.00;90.05;98803.97;5114256;28;20182;-75
2021/07/14 05:09:03;;;;;;;10.30;7.60;;;;;;;18.03;89.50;98803.63;5114568;28;20287;-74
2021/07/14 05:11:30;;;;;;;11.75;7.50;;;;;;;18.01;89.63;98800.22;5114133;28;20189;-73
2021/07/14 05:13:57;;;;;;;12.70;7.85;;;;;;;18.05;89.30;98801.63;5114571;28;20526;-75
2021/07/14 05:16:23;;;;;;;12.32;7.80;;;;;;;18.11;88.95;98803.72;5114439;28;20193;-74
2021/07/14 05:18:50;;;;;;;10.32;8.57;;;;;;;18.13;88.60;98806.28;5113948;28;20209;-73
2021/07/14 05:21:17;;;;;;;9.13;7.95;;;;;;;18.11;88.01;98801.00;5113951;28;20185;-73
2021/07/14 05:23:44;;;;;;;10.50;7.75;;;;;;;18.09;88.49;98805.75;5114267;28;20181;-74
2021/07/14 05:26:12;;;;;;;9.55;7.50;;;;;;;18.15;88.91;98808.84;5113450;28;20197;-74
2021/07/14 05:28:39;;;;;;;9.77;7.90;;;;;;;18.03;88.99;98803.63;5113944;28;20185;-73
2021/07/14 05:31:06;;;;;;;13.27;8.40;;;;;;;18.02;89.10;98811.97;5114136;28;20192;-74
2021/07/14 05:33:32;;;;;;;10.82;8.45;;;;;;;18.01;89.30;98807.53;5113464;28;20202;-73
2021/07/14 05:35:59;;;;;;;9.60;7.95;;;;;;;18.17;87.79;98802.22;5113697;28;20597;-74
2021/07/14 05:38:28;;;;;;;11.57;8.93;;;;;;;18.16;87.86;98807.81;5113308;28;20230;-74
2021/07/14 05:40:57;;;;;;;12.43;11.23;;;;;;;18.20;88.05;98801.06;5113733;28;20361;-74
2021/07/14 05:43:25;;;;;;;9.75;8.85;;;;;;;18.28;87.25;98812.88;5113342;28;20194;-73
2021/07/14 05:45:51;;;;;;;9.80;8.70;;;;;;;18.30;87.12;98810.00;5113132;28;20265;-73
2021/07/14 05:48:18;;;;;;;12.38;9.98;;;;;;;18.33;86.77;98810.53;5113268;28;20193;-74
2021/07/14 05:50:45;;;;;;;9.93;9.02;;;;;;;18.45;85.98;98802.09;5113838;28;20201;-74
2021/07/14 05:53:12;;;;;;;12.27;9.73;;;;;;;18.61;84.35;98798.63;5113266;28;20186;-74
2021/07/14 05:55:39;;;;;;;12.02;8.80;;;;;;;18.57;84.62;98797.28;5113464;28;20675;-73
2021/07/14 05:58:07;;;;;;;14.00;9.82;;;;;;;18.66;84.56;98799.88;5113374;28;20186;-75
2021/07/14 06:00:34;;;;;;;13.13;11.15;;;;;;;18.61;84.60;98801.38;5113170;28;20600;-74
2021/07/14 06:03:01;;;;;;;12.63;9.63;;;;;;;18.62;84.05;98808.53;5112302;28;20320;-74
2021/07/14 06:05:27;;;;;;;11.93;10.27;;;;;;;18.78;83.21;98811.41;5112878;28;20274;-75
2021/07/14 06:07:54;;;;;;;12.30;11.00;;;;;;;18.76;83.22;98816.13;5113036;28;20297;-74
2021/07/14 06:10:20;;;;;;;12.13;10.93;;;;;;;18.85;83.11;98823.38;5113174;28;20628;-74
2021/07/14 06:12:47;;;;;;;13.05;10.10;;;;;;;18.89;81.66;98808.41;5113098;28;20182;-74
2021/07/14 06:15:15;;;;;;;12.73;10.20;;;;;;;18.57;82.86;98809.03;5113118;28;20218;-74
2021/07/14 06:17:42;;;;;;;11.27;10.10;;;;;;;18.54;84.03;98806.59;5113121;28;20197;-75
2021/07/14 06:20:09;;;;;;;19.38;11.70;;;;;;;18.78;83.33;98813.28;5112941;28;20277;-74
2021/07/14 06:22:36;;;;;;;15.27;12.02;;;;;;;18.99;81.87;98802.81;5112280;28;20293;-74
2021/07/14 06:25:04;;;;;;;9.93;8.93;;;;;;;19.11;80.63;98800.69;5112468;28;20274;-75
2021/07/14 06:27:33;;;;;;;12.55;11.18;;;;;;;19.07;80.32;98804.75;5112810;28;20285;-76
2021/07/14 06:30:00;;;;;;;12.27;9.45;;;;;;;19.11;80.68;98795.25;5112237;28;20655;-74
2021/07/14 06:32:28;;;;;;;12.05;10.90;;;;;;;19.18;80.08;98799.00;5092491;28;20278;-74
2021/07/14 06:34:55;;;;;;;10.52;8.90;;;;;;;19.20;79.96;98798.84;5092248;28;20741;-74
2021/07/14 06:37:21;;;;;;;9.98;8.70;;;;;;;18.84;80.76;98801.75;5092414;28;20274;-74
2021/07/14 06:39:48;;;;;;;10.25;9.25;;;;;;;18.76;82.43;98805.22;5112755;28;20597;-75
2021/07/14 06:42:14;;;;;;;10.85;7.90;;;;;;;18.80;82.17;98817.56;5111395;28;20232;-75
2021/07/14 06:44:41;;;;;;;8.68;7.90;;;;;;;18.58;83.16;98810.72;5112079;28;20198;-74
2021/07/14 06:47:08;;;;;;;9.48;8.15;;;;;;;18.65;83.23;98808.22;5112216;28;20199;-73
2021/07/14 06:49:36;;;;;;;7.50;6.40;;;;;;;18.35;84.13;98815.84;5112488;28;20266;-72
2021/07/14 06:52:04;;;;;;;6.95;6.25;;;;;;;18.32;84.95;98814.28;5112465;28;20202;-73
2021/07/14 06:54:30;;;;;;;7.78;6.93;;;;;;;18.38;85.11;98810.06;5111982;28;20641;-73
2021/07/14 06:56:57;;;;;;;9.60;6.30;;;;;;;18.64;83.39;98818.28;5111731;28;20284;-74
2021/07/14 06:59:24;;;;;;;8.23;6.43;;;;;;;18.63;83.16;98816.56;5112494;28;20662;-74
2021/07/14 07:01:50;;;;;;;7.28;6.38;;;;;;;18.62;83.49;98814.84;5111628;28;20273;-75
2021/07/14 07:04:17;;;;;;;9.27;6.78;;;;;;;18.44;83.64;98816.75;5111964;28;20256;-76
2021/07/14 07:06:45;;;;;;;8.18;6.50;;;;;;;18.59;83.72;98814.28;5112208;28;20182;-75
2021/07/14 07:09:11;;;;;;;7.57;6.88;;;;;;;18.72;82.65;98809.28;5094230;28;20631;-73
2021/07/14 07:11:38;;;;;;;6.40;5.72;;;;;;;18.74;82.42;98807.25;5112083;28;20291;-74
2021/07/14 07:14:05;;;;;;;8.18;6.93;;;;;;;18.48;83.90;98813.56;5112342;28;20232;-74
2021/07/14 07:16:32;;;;;;;7.97;7.13;;;;;;;18.57;84.03;98821.81;5112235;28;20675;-73
2021/07/14 07:18:59;;;;;;;6.90;6.28;;;;;;;18.70;83.34;98814.91;5112307;28;20190;-76
2021/07/14 07:21:26;;;;;;;7.82;6.25;;;;;;;18.95;82.06;98809.66;5111708;28;20186;-73
2021/07/14 07:23:55;;;;;;;8.30;6.55;;;;;;;18.80;82.39;98817.56;5112249;28;20202;-74
2021/07/14 07:26:22;;;;;;;6.18;5.57;;;;;;;18.65;82.92;98816.41;5112231;28;20273;-74
2021/07/14 07:28:51;;;;;;;7.90;7.20;;;;;;;18.64;83.09;98818.28;5111728;28;20277;-74
2021/07/14 07:31:17;;;;;;;7.13;6.43;;;;;;;18.40;85.04;98816.22;5112045;28;20200;-74
2021/07/14 07:33:44;;;;;;;10.38;7.60;;;;;;;18.67;83.68;98812.50;5112109;28;20193;-74
2021/07/14 07:36:10;;;;;;;7.65;6.95;;;;;;;18.36;84.86;98817.56;5111683;28;20207;-74
2021/07/14 07:38:39;;;;;;;7.95;7.25;;;;;;;18.55;84.58;98808.31;5111740;28;20206;-74
2021/07/14 07:41:07;;;;;;;7.95;7.15;;;;;;;18.47;84.93;98816.44;5112118;28;20585;-75
2021/07/14 07:43:34;;;;;;;8.07;6.90;;;;;;;18.51;84.99;98807.78;5111888;28;20186;-73
2021/07/14 07:46:01;;;;;;;7.80;7.00;;;;;;;18.58;84.48;98818.06;5111728;28;20292;-74
2021/07/14 07:48:28;;;;;;;8.18;6.75;;;;;;;18.39;86.21;98811.78;5112140;28;20925;-73
2021/07/14 07:50:55;;;;;;;8.40;7.60;;;;;;;18.58;85.12;98812.59;5111788;28;20329;-73
2021/07/14 07:53:22;;;;;;;9.02;8.20;;;;;;;18.36;85.93;98813.97;5113069;28;20306;-74
2021/07/14 07:55:50;;;;;;;11.98;9.20;;;;;;;18.68;85.47;98807.91;5116163;28;20214;-73
2021/07/14 07:58:19;;;;;;;8.82;7.93;;;;;;;18.19;86.50;98802.94;5116046;28;20301;-73
2021/07/14 08:00:48;;;;;;;9.80;8.82;;;;;;;18.45;85.99;98802.97;5114405;28;20277;-73
2021/07/14 08:03:14;;;;;;;9.00;7.75;;;;;;;18.49;85.70;98812.53;5115449;28;20306;-72
2021/07/14 08:05:41;;;;;;;11.48;8.60;;;;;;;18.70;84.98;98809.47;5115775;28;20193;-73
2021/07/14 08:08:08;;;;;;;8.50;7.72;;;;;;;18.72;84.89;98809.28;5115065;28;20187;-74
2021/07/14 08:10:35;;;;;;;8.82;8.02;;;;;;;18.72;84.46;98820.19;5115346;28;20187;-75
2021/07/14 08:13:03;;;;;;;10.75;9.57;;;;;;;18.78;84.59;98814.13;5115547;28;20690;-75
2021/07/14 08:15:31;;;;;;;10.75;9.15;;;;;;;18.81;84.21;98830.16;5115628;28;20294;-74
2021/07/14 08:17:58;;;;;;;8.45;7.68;;;;;;;18.94;83.83;98827.00;5115617;28;20270;-73
2021/07/14 08:20:25;;;;;;;24.77;20.10;;;;;;;19.05;82.05;98834.91;5115051;28;20236;-74
2021/07/14 08:22:53;;;;;;;13.88;8.15;;;;;;;19.09;82.12;98824.56;5115490;28;20289;-74
2021/07/14 08:25:19;;;;;;;9.52;7.32;;;;;;;19.05;81.97;98815.81;5114868;28;20186;-74
2021/07/14 08:27:46;;;;;;;8.15;7.30;;;;;;;18.89;82.62;98805.69;5114037;28;20274;-74
2021/07/14 08:30:14;;;;;;;11.35;7.85;;;;;;;18.88;84.00;98803.97;5114336;28;20248;-75
2021/07/14 08:32:42;;;;;;;8.98;8.02;;;;;;;18.95;83.57;98815.09;5116411;27;20547;-74
2021/07/14 08:35:11;;;;;;;12.18;8.07;;;;;;;18.95;82.97;98810.50;5132734;27;20636;-75
2021/07/14 08:37:38;;;;;;;9.23;7.75;;;;;;;18.75;84.11;98814.44;5119848;27;20213;-75
2021/07/14 08:40:07;;;;;;;9.02;8.07;;;;;;;18.88;84.20;98809.44;5115069;28;20280;-74
2021/07/14 08:42:35;;;;;;;8.75;7.45;;;;;;;19.05;82.47;98810.38;5114994;28;20228;-73
2021/07/14 08:45:04;;;;;;;11.57;10.23;;;;;;;19.24;81.96;98817.44;5114562;28;20206;-74
2021/07/14 08:47:31;;;;;;;15.88;12.27;;;;;;;19.02;83.07;98815.31;5114308;28;20274;-73
2021/07/14 08:49:59;;;;;;;9.00;8.10;;;;;;;19.32;82.38;98819.38;5114343;28;20268;-75
2021/07/14 08:52:26;;;;;;;7.40;6.63;;;;;;;19.34;81.75;98829.09;5114803;28;20269;-74
2021/07/14 08:54:53;;;;;;;7.87;6.43;;;;;;;19.15;81.45;98832.94;5114653;28;20725;-74
2021/07/14 08:57:20;;;;;;;9.35;6.40;;;;;;;19.30;81.30;98849.53;5114565;28;20552;-74
2021/07/14 08:59:47;;;;;;;7.63;5.75;;;;;;;19.13;81.93;98848.63;5113907;28;20201;-74
2021/07/14 09:02:15;;;;;;;9.18;7.03;;;;;;;18.99;82.94;98851.09;5114402;28;20230;-74
2021/07/14 09:04:41;;;;;;;17.92;6.30;;;;;;;19.19;82.63;98846.25;5113270;28;20321;-74
2021/07/14 09:07:10;;;;;;;10.35;6.82;;;;;;;19.22;82.71;98849.53;5114067;28;20221;-74
2021/07/14 09:09:38;;;;;;;8.45;6.43;;;;;;;19.12;82.25;98849.63;5113754;28;20221;-73
2021/07/14 09:12:10;;;;;;;9.30;6.93;;;;;;;19.24;82.79;98854.81;5114092;28;20205;-75
2021/07/14 09:14:38;;;;;;;7.70;6.40;;;;;;;19.34;82.28;98853.66;5113889;28;20201;-73
2021/07/14 09:17:22;;;;;;;6.57;5.85;;;;;;;19.36;81.96;98856.25;5113098;28;20224;-74
2021/07/14 09:19:49;;;;;;;8.93;5.30;;;;;;;19.32;81.94;98855.69;5114730;28;20839;-74
2021/07/14 09:22:21;;;;;;;8.85;6.88;;;;;;;19.40;82.05;98846.69;5114348;28;20203;-74
2021/07/14 09:24:49;;;;;;;11.90;8.45;;;;;;;19.50;80.75;98850.16;5113657;28;20187;-74
2021/07/14 09:27:22;;;;;;;16.43;8.57;;;;;;;19.67;80.03;98852.94;5113758;28;20195;-75
2021/07/14 09:30:10;;;;;;;10.00;6.18;;;;;;;19.17;82.22;98839.09;5113699;28;20437;-74
2021/07/14 09:32:51;;;;;;;7.63;5.50;;;;;;;19.27;82.38;98840.84;5113096;28;20194;-73
2021/07/14 09:35:31;;;;;;;11.93;7.07;;;;;;;19.45;82.06;98836.16;5113800;28;20221;-74
2021/07/14 09:38:01;;;;;;;7.40;6.20;;;;;;;19.58;81.25;98838.41;5113796;28;20445;-73
2021/07/14 09:40:28;;;;;;;7.37;5.70;;;;;;;19.55;81.68;98836.00;5113556;28;20186;-73
2021/07/14 09:42:58;;;;;;;7.25;5.45;;;;;;;19.70;81.07;98830.81;5113935;28;21230;-74
2021/07/14 09:45:46;;;;;;;9.17;6.23;;;;;;;19.83;80.00;98833.03;5113553;28;20207;-75
2021/07/14 09:48:15;;;;;;;11.80;9.23;;;;;;;19.92;79.33;98837.50;5113391;28;20440;-75
2021/07/14 09:50:43;;;;;;;9.30;8.30;;;;;;;19.90;79.59;98845.00;5113796;28;20510;-74
2021/07/14 09:53:14;;;;;;;6.30;5.68;;;;;;;19.95;79.37;98839.91;5113090;28;20444;-75
2021/07/14 09:55:42;;;;;;;5.23;4.73;;;;;;;19.77;79.66;98846.34;5113164;28;20179;-73
2021/07/14 09:58:14;;;;;;;7.13;6.30;;;;;;;19.72;80.47;98850.63;5113132;28;20508;-75
2021/07/14 10:00:49;;;;;;;7.95;5.97;;;;;;;19.76;81.01;98860.16;5113423;28;20205;-75
2021/07/14 10:03:21;;;;;;;8.53;6.10;;;;;;;19.89;79.88;98871.47;5113010;28;20589;-74
2021/07/14 10:05:48;;;;;;;5.83;5.30;;;;;;;19.92;79.25;98868.44;5112837;28;20468;-73
2021/07/14 10:08:22;;;;;;;5.07;4.63;;;;;;;19.91;78.98;98872.16;5112674;28;20512;-74
2021/07/14 10:10:50;;;;;;;7.37;6.37;;;;;;;19.78;80.15;98875.38;5112752;28;20433;-76
2021/07/14 10:13:21;;;;;;;7.00;5.13;;;;;;;19.60;81.13;98877.31;5112650;28;20486;-74
2021/07/14 10:16:01;;;;;;;5.70;4.20;;;;;;;19.67;81.65;98878.41;5111946;28;21000;-74
2021/07/14 10:18:28;;;;;;;5.80;4.50;;;;;;;19.70;82.68;98886.28;5112674;28;20451;-74
2021/07/14 10:20:55;;;;;;;5.23;4.73;;;;;;;19.80;81.73;98891.59;5112473;28;20244;-74
2021/07/14 10:23:23;;;;;;;7.67;5.67;;;;;;;19.73;81.76;98898.75;5112556;28;20494;-74
2021/07/14 10:25:51;;;;;;;4.73;4.20;;;;;;;19.69;82.57;98900.09;5112746;28;20464;-76
2021/07/14 10:28:20;;;;;;;4.80;4.40;;;;;;;19.52;82.97;98902.72;5112320;28;20428;-75
2021/07/14 10:30:49;;;;;;;5.50;5.00;;;;;;;19.53;84.12;98909.03;5112128;28;20938;-75
2021/07/14 10:33:19;;;;;;;5.70;4.97;;;;;;;19.43;84.28;98900.13;5111470;28;20531;-75
2021/07/14 10:35:47;;;;;;;4.70;4.20;;;;;;;19.31;85.03;98911.31;5112458;28;21140;-73
2021/07/14 10:38:17;;;;;;;6.50;4.40;;;;;;;19.50;85.72;98910.22;5112419;28;20486;-74
2021/07/14 10:40:48;;;;;;;6.53;4.00;;;;;;;19.47;85.29;98906.94;5112349;28;20864;-74
2021/07/14 10:43:17;;;;;;;4.60;4.20;;;;;;;19.42;86.38;98892.94;5112606;28;20893;-74
2021/07/14 10:45:47;;;;;;;7.45;5.25;;;;;;;19.30;87.56;98901.41;5112485;28;20913;-73
2021/07/14 10:48:16;;;;;;;8.32;6.40;;;;;;;19.25;87.97;98895.59;5112404;28;20187;-74
2021/07/14 10:50:43;;;;;;;9.40;4.10;;;;;;;19.40;86.97;98901.28;5112404;28;20274;-73
2021/07/14 10:53:12;;;;;;;8.70;6.25;;;;;;;19.41;87.99;98892.09;5112480;28;20840;-74
2021/07/14 10:55:40;;;;;;;5.10;4.28;;;;;;;19.53;86.30;98890.75;5112473;28;20179;-74
2021/07/14 10:58:10;;;;;;;4.07;3.65;;;;;;;19.44;87.32;98875.38;5111842;28;20304;-74
2021/07/14 11:00:39;;;;;;;4.30;3.90;;;;;;;19.48;87.25;98873.19;5112122;28;20218;-74
2021/07/14 11:03:06;;;;;;;3.88;3.53;;;;;;;19.33;86.80;98860.16;5112102;28;20237;-75
2021/07/14 11:05:35;;;;;;;3.90;3.50;;;;;;;19.52;85.61;98859.03;5112010;28;20244;-74
2021/07/14 11:08:02;;;;;;;3.50;3.20;;;;;;;19.57;85.42;98853.94;5111757;28;20202;-73
2021/07/14 11:10:35;;;;;;;2.70;2.50;;;;;;;19.77;83.62;98861.88;5112101;28;20418;-74
2021/07/14 11:13:29;;;;;;;2.83;2.47;;;;;;;19.89;83.77;98866.00;5111822;28;20270;-75
2021/07/14 11:15:56;;;;;;;10.10;4.25;;;;;;;19.71;83.72;98868.84;5112247;28;20487;-74
2021/07/14 11:18:40;;;;;;;5.60;3.45;;;;;;;19.61;86.00;98873.56;5112384;28;20675;-75
2021/07/14 11:21:08;;;;;;;6.75;4.15;;;;;;;19.56;86.06;98874.06;5111858;28;20205;-76
2021/07/14 11:23:35;;;;;;;9.85;3.70;;;;;;;19.33;86.88;98865.63;5112133;28;20217;-74
2021/07/14 11:26:04;;;;;;;8.63;4.82;;;;;;;19.31;86.27;98870.38;5112186;28;20198;-73
2021/07/14 11:28:33;;;;;;;7.97;3.80;;;;;;;19.28;87.10;98870.69;5115214;28;20198;-74
2021/07/14 11:31:09;;;;;;;6.90;3.90;;;;;;;19.31;87.08;98874.97;5115840;28;20198;-75
2021/07/14 11:33:38;;;;;;;15.73;8.07;;;;;;;19.28;87.83;98884.34;5116111;28;20421;-75
2021/07/14 11:36:07;;;;;;;4.93;3.97;;;;;;;19.17;87.39;98890.06;5116194;28;20457;-74
2021/07/14 11:38:44;;;;;;;9.27;6.90;;;;;;;18.87;89.75;98886.81;5115431;28;20445;-73
2021/07/14 11:41:20;;;;;;;8.77;5.00;;;;;;;19.04;89.15;98889.63;5115760;28;20225;-73
2021/07/14 11:43:49;;;;;;;8.43;5.05;;;;;;;19.12;89.54;98886.97;5115371;28;20428;-74
2021/07/14 11:46:17;;;;;;;5.15;4.40;;;;;;;19.13;88.16;98891.41;5115526;28;20289;-74